sensor_id;sensor_type;location;lat;lon;timestamp;P1;durP1;ratioP1;P2;durP2;ratioP2
13891;SDS011;7016;48.172;8.058;2023-08-08T00:00:47;11.23;;;2.17;;
13891;SDS011;7016;48.172;8.058;2023-08-08T00:03:13;11.35;;;2.33;;
13891;SDS011;7016;48.172;8.058;2023-08-08T00:05:39;4.72;;;2.50;;
13891;SDS011;7016;48.172;8.058;2023-08-08T00:08:05;4.78;;;2.05;;
13891;SDS011;7016;48.172;8.058;2023-08-08T00:10:31;6.75;;;2.03;;
13891;SDS011;7016;48.172;8.058;2023-08-08T00:12:57;8.48;;;2.17;;
13891;SDS011;7016;48.172;8.058;2023-08-08T00:15:23;4.65;;;2.03;;
13891;SDS011;7016;48.172;8.058;2023-08-08T00:17:49;4.07;;;2.30;;
13891;SDS011;7016;48.172;8.058;2023-08-08T00:20:14;4.00;;;1.85;;
13891;SDS011;7016;48.172;8.058;2023-08-08T00:22:40;6.38;;;2.50;;
13891;SDS011;7016;48.172;8.058;2023-08-08T00:25:07;5.07;;;1.90;;
13891;SDS011;7016;48.172;8.058;2023-08-08T00:27:33;6.03;;;1.95;;
13891;SDS011;7016;48.172;8.058;2023-08-08T00:29:59;5.70;;;1.90;;
13891;SDS011;7016;48.172;8.058;2023-08-08T00:32:25;5.05;;;1.90;;
13891;SDS011;7016;48.172;8.058;2023-08-08T00:34:51;5.15;;;2.20;;
13891;SDS011;7016;48.172;8.058;2023-08-08T00:37:17;5.28;;;2.50;;
13891;SDS011;7016;48.172;8.058;2023-08-08T00:39:42;5.00;;;2.00;;
13891;SDS011;7016;48.172;8.058;2023-08-08T00:42:14;10.88;;;2.17;;
13891;SDS011;7016;48.172;8.058;2023-08-08T00:44:40;7.60;;;2.20;;
13891;SDS011;7016;48.172;8.058;2023-08-08T00:47:07;4.40;;;1.75;;
13891;SDS011;7016;48.172;8.058;2023-08-08T00:49:34;3.08;;;1.80;;
13891;SDS011;7016;48.172;8.058;2023-08-08T00:52:01;7.25;;;2.30;;
13891;SDS011;7016;48.172;8.058;2023-08-08T00:54:27;5.50;;;2.22;;
13891;SDS011;7016;48.172;8.058;2023-08-08T00:56:53;2.50;;;1.77;;
13891;SDS011;7016;48.172;8.058;2023-08-08T00:59:19;3.22;;;2.10;;
13891;SDS011;7016;48.172;8.058;2023-08-08T01:01:45;6.05;;;1.92;;
13891;SDS011;7016;48.172;8.058;2023-08-08T01:04:11;2.80;;;2.10;;
13891;SDS011;7016;48.172;8.058;2023-08-08T01:06:39;6.10;;;2.13;;
13891;SDS011;7016;48.172;8.058;2023-08-08T01:09:45;5.90;;;2.15;;
13891;SDS011;7016;48.172;8.058;2023-08-08T01:12:11;6.18;;;2.17;;
13891;SDS011;7016;48.172;8.058;2023-08-08T01:14:39;8.38;;;2.17;;
13891;SDS011;7016;48.172;8.058;2023-08-08T01:17:07;9.43;;;2.20;;
13891;SDS011;7016;48.172;8.058;2023-08-08T01:19:35;4.25;;;2.35;;
13891;SDS011;7016;48.172;8.058;2023-08-08T01:22:02;7.97;;;2.40;;
13891;SDS011;7016;48.172;8.058;2023-08-08T01:24:30;4.70;;;2.30;;
13891;SDS011;7016;48.172;8.058;2023-08-08T01:26:59;6.65;;;2.50;;
13891;SDS011;7016;48.172;8.058;2023-08-08T01:29:26;5.85;;;2.35;;
13891;SDS011;7016;48.172;8.058;2023-08-08T01:31:52;5.03;;;2.10;;
13891;SDS011;7016;48.172;8.058;2023-08-08T01:34:18;2.75;;;1.77;;
13891;SDS011;7016;48.172;8.058;2023-08-08T01:37:06;4.47;;;2.00;;
13891;SDS011;7016;48.172;8.058;2023-08-08T01:39:38;5.40;;;2.15;;
13891;SDS011;7016;48.172;8.058;2023-08-08T01:42:07;5.65;;;2.08;;
13891;SDS011;7016;48.172;8.058;2023-08-08T01:44:33;4.55;;;2.22;;
13891;SDS011;7016;48.172;8.058;2023-08-08T01:47:00;7.00;;;2.30;;
13891;SDS011;7016;48.172;8.058;2023-08-08T01:49:26;5.97;;;2.08;;
13891;SDS011;7016;48.172;8.058;2023-08-08T01:51:52;4.85;;;2.00;;
13891;SDS011;7016;48.172;8.058;2023-08-08T01:54:18;3.65;;;2.20;;
13891;SDS011;7016;48.172;8.058;2023-08-08T01:56:44;2.85;;;1.60;;
13891;SDS011;7016;48.172;8.058;2023-08-08T01:59:10;4.28;;;2.10;;
13891;SDS011;7016;48.172;8.058;2023-08-08T02:01:35;4.28;;;2.30;;
13891;SDS011;7016;48.172;8.058;2023-08-08T02:04:01;8.15;;;2.10;;
13891;SDS011;7016;48.172;8.058;2023-08-08T02:06:27;4.60;;;2.00;;
13891;SDS011;7016;48.172;8.058;2023-08-08T02:08:53;5.63;;;2.28;;
13891;SDS011;7016;48.172;8.058;2023-08-08T02:11:19;4.00;;;2.25;;
13891;SDS011;7016;48.172;8.058;2023-08-08T02:13:46;10.45;;;2.22;;
13891;SDS011;7016;48.172;8.058;2023-08-08T02:16:12;5.90;;;2.30;;
13891;SDS011;7016;48.172;8.058;2023-08-08T02:18:38;4.35;;;2.17;;
13891;SDS011;7016;48.172;8.058;2023-08-08T02:21:06;3.55;;;2.20;;
13891;SDS011;7016;48.172;8.058;2023-08-08T02:23:33;6.88;;;2.22;;
13891;SDS011;7016;48.172;8.058;2023-08-08T02:25:59;7.22;;;2.38;;
13891;SDS011;7016;48.172;8.058;2023-08-08T02:28:25;6.03;;;2.20;;
13891;SDS011;7016;48.172;8.058;2023-08-08T02:30:50;13.02;;;2.25;;
13891;SDS011;7016;48.172;8.058;2023-08-08T02:33:16;6.55;;;2.05;;
13891;SDS011;7016;48.172;8.058;2023-08-08T02:35:42;6.43;;;2.30;;
13891;SDS011;7016;48.172;8.058;2023-08-08T02:38:08;6.95;;;2.65;;
13891;SDS011;7016;48.172;8.058;2023-08-08T02:40:34;4.15;;;2.35;;
13891;SDS011;7016;48.172;8.058;2023-08-08T02:43:04;8.82;;;2.17;;
13891;SDS011;7016;48.172;8.058;2023-08-08T02:45:29;6.05;;;1.88;;
13891;SDS011;7016;48.172;8.058;2023-08-08T02:47:55;3.25;;;1.70;;
13891;SDS011;7016;48.172;8.058;2023-08-08T02:50:21;5.85;;;2.13;;
13891;SDS011;7016;48.172;8.058;2023-08-08T02:52:46;3.92;;;1.73;;
13891;SDS011;7016;48.172;8.058;2023-08-08T02:55:12;6.90;;;1.90;;
13891;SDS011;7016;48.172;8.058;2023-08-08T02:57:39;4.05;;;2.28;;
13891;SDS011;7016;48.172;8.058;2023-08-08T03:00:05;11.23;;;2.15;;
13891;SDS011;7016;48.172;8.058;2023-08-08T03:02:33;9.77;;;2.20;;
13891;SDS011;7016;48.172;8.058;2023-08-08T03:04:59;5.72;;;2.03;;
13891;SDS011;7016;48.172;8.058;2023-08-08T03:07:25;6.93;;;1.98;;
13891;SDS011;7016;48.172;8.058;2023-08-08T03:09:50;6.38;;;1.85;;
13891;SDS011;7016;48.172;8.058;2023-08-08T03:12:16;3.38;;;2.17;;
13891;SDS011;7016;48.172;8.058;2023-08-08T03:14:43;8.25;;;2.20;;
13891;SDS011;7016;48.172;8.058;2023-08-08T03:17:14;4.07;;;2.05;;
13891;SDS011;7016;48.172;8.058;2023-08-08T03:19:40;2.67;;;2.00;;
13891;SDS011;7016;48.172;8.058;2023-08-08T03:22:06;4.03;;;2.22;;
13891;SDS011;7016;48.172;8.058;2023-08-08T03:24:31;4.20;;;2.20;;
13891;SDS011;7016;48.172;8.058;2023-08-08T03:26:57;5.60;;;2.08;;
13891;SDS011;7016;48.172;8.058;2023-08-08T03:29:23;4.95;;;1.90;;
13891;SDS011;7016;48.172;8.058;2023-08-08T03:31:49;3.70;;;2.03;;
13891;SDS011;7016;48.172;8.058;2023-08-08T03:34:14;3.30;;;1.90;;
13891;SDS011;7016;48.172;8.058;2023-08-08T03:36:40;4.80;;;2.03;;
13891;SDS011;7016;48.172;8.058;2023-08-08T03:39:06;9.05;;;2.13;;
13891;SDS011;7016;48.172;8.058;2023-08-08T03:41:33;4.00;;;2.30;;
13891;SDS011;7016;48.172;8.058;2023-08-08T03:43:59;3.22;;;2.25;;
13891;SDS011;7016;48.172;8.058;2023-08-08T03:46:24;4.78;;;2.15;;
13891;SDS011;7016;48.172;8.058;2023-08-08T03:48:50;4.05;;;2.00;;
13891;SDS011;7016;48.172;8.058;2023-08-08T03:51:16;4.70;;;1.83;;
13891;SDS011;7016;48.172;8.058;2023-08-08T03:53:41;2.58;;;2.08;;
13891;SDS011;7016;48.172;8.058;2023-08-08T03:56:08;8.13;;;2.05;;
13891;SDS011;7016;48.172;8.058;2023-08-08T03:58:34;5.07;;;2.22;;
13891;SDS011;7016;48.172;8.058;2023-08-08T04:00:59;7.88;;;1.98;;
13891;SDS011;7016;48.172;8.058;2023-08-08T04:03:25;9.02;;;2.63;;
13891;SDS011;7016;48.172;8.058;2023-08-08T04:05:51;6.15;;;2.03;;
13891;SDS011;7016;48.172;8.058;2023-08-08T04:08:17;4.13;;;1.75;;
13891;SDS011;7016;48.172;8.058;2023-08-08T04:10:43;4.05;;;2.00;;
13891;SDS011;7016;48.172;8.058;2023-08-08T04:13:12;2.88;;;1.70;;
13891;SDS011;7016;48.172;8.058;2023-08-08T04:15:37;3.78;;;1.92;;
13891;SDS011;7016;48.172;8.058;2023-08-08T04:18:03;5.10;;;2.28;;
13891;SDS011;7016;48.172;8.058;2023-08-08T04:20:31;7.65;;;2.20;;
13891;SDS011;7016;48.172;8.058;2023-08-08T04:22:57;4.95;;;2.40;;
13891;SDS011;7016;48.172;8.058;2023-08-08T04:25:23;6.43;;;2.35;;
13891;SDS011;7016;48.172;8.058;2023-08-08T04:27:49;4.45;;;1.90;;
13891;SDS011;7016;48.172;8.058;2023-08-08T04:30:15;4.35;;;2.00;;
13891;SDS011;7016;48.172;8.058;2023-08-08T04:32:40;5.63;;;2.03;;
13891;SDS011;7016;48.172;8.058;2023-08-08T04:35:06;4.30;;;1.90;;
13891;SDS011;7016;48.172;8.058;2023-08-08T04:37:32;6.47;;;2.38;;
13891;SDS011;7016;48.172;8.058;2023-08-08T04:39:57;4.18;;;2.00;;
13891;SDS011;7016;48.172;8.058;2023-08-08T04:42:23;3.63;;;1.80;;
13891;SDS011;7016;48.172;8.058;2023-08-08T04:44:49;5.53;;;2.55;;
13891;SDS011;7016;48.172;8.058;2023-08-08T04:47:14;6.78;;;1.90;;
13891;SDS011;7016;48.172;8.058;2023-08-08T04:49:40;7.40;;;1.92;;
13891;SDS011;7016;48.172;8.058;2023-08-08T04:52:05;7.10;;;2.00;;
13891;SDS011;7016;48.172;8.058;2023-08-08T04:54:31;5.00;;;1.85;;
13891;SDS011;7016;48.172;8.058;2023-08-08T04:56:57;6.22;;;3.20;;
13891;SDS011;7016;48.172;8.058;2023-08-08T04:59:23;4.15;;;2.20;;
13891;SDS011;7016;48.172;8.058;2023-08-08T05:01:48;6.75;;;2.33;;
13891;SDS011;7016;48.172;8.058;2023-08-08T05:04:14;5.55;;;2.28;;
13891;SDS011;7016;48.172;8.058;2023-08-08T05:06:40;2.55;;;2.13;;
13891;SDS011;7016;48.172;8.058;2023-08-08T05:09:05;4.18;;;1.80;;
13891;SDS011;7016;48.172;8.058;2023-08-08T05:11:34;2.13;;;1.70;;
13891;SDS011;7016;48.172;8.058;2023-08-08T05:14:00;4.43;;;2.20;;
13891;SDS011;7016;48.172;8.058;2023-08-08T05:16:26;3.00;;;1.70;;
13891;SDS011;7016;48.172;8.058;2023-08-08T05:18:52;3.42;;;1.60;;
13891;SDS011;7016;48.172;8.058;2023-08-08T05:21:17;5.50;;;2.10;;
13891;SDS011;7016;48.172;8.058;2023-08-08T05:23:45;7.93;;;1.80;;
13891;SDS011;7016;48.172;8.058;2023-08-08T05:26:10;3.55;;;1.60;;
13891;SDS011;7016;48.172;8.058;2023-08-08T05:28:36;6.93;;;2.35;;
13891;SDS011;7016;48.172;8.058;2023-08-08T05:31:02;3.47;;;1.90;;
13891;SDS011;7016;48.172;8.058;2023-08-08T05:33:28;6.82;;;2.20;;
13891;SDS011;7016;48.172;8.058;2023-08-08T05:35:54;6.53;;;2.10;;
13891;SDS011;7016;48.172;8.058;2023-08-08T05:38:19;9.10;;;2.28;;
13891;SDS011;7016;48.172;8.058;2023-08-08T05:40:45;5.40;;;2.17;;
13891;SDS011;7016;48.172;8.058;2023-08-08T05:43:11;3.72;;;2.25;;
13891;SDS011;7016;48.172;8.058;2023-08-08T05:45:41;6.78;;;2.00;;
13891;SDS011;7016;48.172;8.058;2023-08-08T05:48:07;5.78;;;2.10;;
13891;SDS011;7016;48.172;8.058;2023-08-08T05:50:36;9.82;;;2.17;;
13891;SDS011;7016;48.172;8.058;2023-08-08T05:53:03;3.75;;;2.20;;
13891;SDS011;7016;48.172;8.058;2023-08-08T05:55:28;3.63;;;1.88;;
13891;SDS011;7016;48.172;8.058;2023-08-08T05:57:54;2.92;;;1.75;;
13891;SDS011;7016;48.172;8.058;2023-08-08T06:00:20;4.28;;;2.20;;
13891;SDS011;7016;48.172;8.058;2023-08-08T06:02:45;5.78;;;2.33;;
13891;SDS011;7016;48.172;8.058;2023-08-08T06:05:11;9.20;;;2.55;;
13891;SDS011;7016;48.172;8.058;2023-08-08T06:07:37;7.30;;;2.30;;
13891;SDS011;7016;48.172;8.058;2023-08-08T06:10:04;6.07;;;2.22;;
13891;SDS011;7016;48.172;8.058;2023-08-08T06:12:30;5.50;;;1.80;;
13891;SDS011;7016;48.172;8.058;2023-08-08T06:14:56;8.05;;;2.05;;
13891;SDS011;7016;48.172;8.058;2023-08-08T06:17:22;6.95;;;2.30;;
13891;SDS011;7016;48.172;8.058;2023-08-08T06:19:48;4.60;;;2.00;;
13891;SDS011;7016;48.172;8.058;2023-08-08T06:22:15;4.93;;;2.30;;
13891;SDS011;7016;48.172;8.058;2023-08-08T06:24:41;4.35;;;1.98;;
13891;SDS011;7016;48.172;8.058;2023-08-08T06:27:07;4.07;;;2.50;;
13891;SDS011;7016;48.172;8.058;2023-08-08T06:29:32;10.85;;;2.75;;
13891;SDS011;7016;48.172;8.058;2023-08-08T06:31:58;7.18;;;2.50;;
13891;SDS011;7016;48.172;8.058;2023-08-08T06:34:24;5.40;;;2.90;;
13891;SDS011;7016;48.172;8.058;2023-08-08T06:36:49;5.78;;;3.55;;
13891;SDS011;7016;48.172;8.058;2023-08-08T06:39:15;9.20;;;3.50;;
13891;SDS011;7016;48.172;8.058;2023-08-08T06:41:41;9.85;;;3.70;;
13891;SDS011;7016;48.172;8.058;2023-08-08T06:44:07;8.90;;;3.35;;
13891;SDS011;7016;48.172;8.058;2023-08-08T06:46:33;7.38;;;3.70;;
13891;SDS011;7016;48.172;8.058;2023-08-08T06:48:59;9.25;;;3.58;;
13891;SDS011;7016;48.172;8.058;2023-08-08T06:51:26;4.72;;;3.28;;
13891;SDS011;7016;48.172;8.058;2023-08-08T06:53:52;4.72;;;3.30;;
13891;SDS011;7016;48.172;8.058;2023-08-08T06:56:18;4.15;;;2.60;;
13891;SDS011;7016;48.172;8.058;2023-08-08T06:58:43;5.60;;;2.45;;
13891;SDS011;7016;48.172;8.058;2023-08-08T07:01:09;7.00;;;2.67;;
13891;SDS011;7016;48.172;8.058;2023-08-08T07:03:35;6.45;;;3.30;;
13891;SDS011;7016;48.172;8.058;2023-08-08T07:06:01;7.10;;;2.28;;
13891;SDS011;7016;48.172;8.058;2023-08-08T07:08:28;3.28;;;2.03;;
13891;SDS011;7016;48.172;8.058;2023-08-08T07:10:54;6.95;;;2.50;;
13891;SDS011;7016;48.172;8.058;2023-08-08T07:13:22;11.65;;;2.78;;
13891;SDS011;7016;48.172;8.058;2023-08-08T07:15:47;4.75;;;2.00;;
13891;SDS011;7016;48.172;8.058;2023-08-08T07:18:13;5.80;;;2.22;;
13891;SDS011;7016;48.172;8.058;2023-08-08T07:20:39;5.53;;;2.55;;
13891;SDS011;7016;48.172;8.058;2023-08-08T07:23:05;3.97;;;2.22;;
13891;SDS011;7016;48.172;8.058;2023-08-08T07:25:30;3.95;;;2.13;;
13891;SDS011;7016;48.172;8.058;2023-08-08T07:27:56;4.57;;;2.50;;
13891;SDS011;7016;48.172;8.058;2023-08-08T07:30:22;5.63;;;2.40;;
13891;SDS011;7016;48.172;8.058;2023-08-08T07:32:47;5.80;;;1.88;;
13891;SDS011;7016;48.172;8.058;2023-08-08T07:35:13;6.53;;;2.33;;
13891;SDS011;7016;48.172;8.058;2023-08-08T07:37:40;4.90;;;2.40;;
13891;SDS011;7016;48.172;8.058;2023-08-08T07:40:15;7.25;;;2.92;;
13891;SDS011;7016;48.172;8.058;2023-08-08T07:42:46;6.72;;;3.38;;
13891;SDS011;7016;48.172;8.058;2023-08-08T07:45:12;12.13;;;3.50;;
13891;SDS011;7016;48.172;8.058;2023-08-08T07:47:38;7.13;;;3.40;;
13891;SDS011;7016;48.172;8.058;2023-08-08T07:50:04;10.18;;;5.22;;
13891;SDS011;7016;48.172;8.058;2023-08-08T07:52:33;12.27;;;3.75;;
13891;SDS011;7016;48.172;8.058;2023-08-08T07:54:59;8.90;;;2.83;;
13891;SDS011;7016;48.172;8.058;2023-08-08T07:57:26;7.15;;;3.20;;
13891;SDS011;7016;48.172;8.058;2023-08-08T07:59:52;7.70;;;3.22;;
13891;SDS011;7016;48.172;8.058;2023-08-08T08:02:17;3.28;;;2.60;;
13891;SDS011;7016;48.172;8.058;2023-08-08T08:04:43;7.07;;;2.25;;
13891;SDS011;7016;48.172;8.058;2023-08-08T08:07:09;5.10;;;1.60;;
13891;SDS011;7016;48.172;8.058;2023-08-08T08:09:34;6.65;;;1.70;;
13891;SDS011;7016;48.172;8.058;2023-08-08T08:12:00;5.18;;;1.70;;
13891;SDS011;7016;48.172;8.058;2023-08-08T08:14:26;3.78;;;1.35;;
13891;SDS011;7016;48.172;8.058;2023-08-08T08:16:52;5.65;;;1.63;;
13891;SDS011;7016;48.172;8.058;2023-08-08T08:19:19;3.45;;;1.50;;
13891;SDS011;7016;48.172;8.058;2023-08-08T08:21:45;3.42;;;1.40;;
13891;SDS011;7016;48.172;8.058;2023-08-08T08:24:11;2.45;;;1.50;;
13891;SDS011;7016;48.172;8.058;2023-08-08T08:26:37;1.77;;;1.20;;
13891;SDS011;7016;48.172;8.058;2023-08-08T08:29:02;4.10;;;1.30;;
13891;SDS011;7016;48.172;8.058;2023-08-08T08:31:28;4.22;;;1.60;;
13891;SDS011;7016;48.172;8.058;2023-08-08T08:33:54;4.68;;;1.42;;
13891;SDS011;7016;48.172;8.058;2023-08-08T08:36:20;5.32;;;1.30;;
13891;SDS011;7016;48.172;8.058;2023-08-08T08:38:46;4.35;;;1.35;;
13891;SDS011;7016;48.172;8.058;2023-08-08T08:41:14;4.15;;;1.42;;
13891;SDS011;7016;48.172;8.058;2023-08-08T08:43:43;4.15;;;1.65;;
13891;SDS011;7016;48.172;8.058;2023-08-08T08:46:09;5.15;;;2.75;;
13891;SDS011;7016;48.172;8.058;2023-08-08T08:48:36;4.10;;;1.67;;
13891;SDS011;7016;48.172;8.058;2023-08-08T08:51:02;5.65;;;1.45;;
13891;SDS011;7016;48.172;8.058;2023-08-08T08:53:28;5.72;;;2.05;;
13891;SDS011;7016;48.172;8.058;2023-08-08T08:55:56;2.55;;;1.20;;
13891;SDS011;7016;48.172;8.058;2023-08-08T08:58:22;4.38;;;1.50;;
13891;SDS011;7016;48.172;8.058;2023-08-08T09:00:49;4.07;;;1.70;;
13891;SDS011;7016;48.172;8.058;2023-08-08T09:03:18;3.25;;;1.65;;
13891;SDS011;7016;48.172;8.058;2023-08-08T09:05:44;5.78;;;1.60;;
13891;SDS011;7016;48.172;8.058;2023-08-08T09:08:11;3.08;;;1.42;;
13891;SDS011;7016;48.172;8.058;2023-08-08T09:10:40;4.28;;;1.83;;
13891;SDS011;7016;48.172;8.058;2023-08-08T09:13:07;5.05;;;1.45;;
13891;SDS011;7016;48.172;8.058;2023-08-08T09:15:33;3.08;;;1.40;;
13891;SDS011;7016;48.172;8.058;2023-08-08T09:17:59;4.43;;;1.45;;
13891;SDS011;7016;48.172;8.058;2023-08-08T09:20:26;3.35;;;1.63;;
13891;SDS011;7016;48.172;8.058;2023-08-08T09:22:56;7.35;;;1.70;;
13891;SDS011;7016;48.172;8.058;2023-08-08T09:25:22;5.85;;;1.83;;
13891;SDS011;7016;48.172;8.058;2023-08-08T09:27:50;4.18;;;1.98;;
13891;SDS011;7016;48.172;8.058;2023-08-08T09:30:18;3.00;;;1.50;;
13891;SDS011;7016;48.172;8.058;2023-08-08T09:32:44;4.93;;;1.70;;
13891;SDS011;7016;48.172;8.058;2023-08-08T09:35:10;7.55;;;1.95;;
13891;SDS011;7016;48.172;8.058;2023-08-08T09:37:36;4.88;;;1.77;;
13891;SDS011;7016;48.172;8.058;2023-08-08T09:40:03;3.88;;;1.40;;
13891;SDS011;7016;48.172;8.058;2023-08-08T09:42:33;4.00;;;1.40;;
13891;SDS011;7016;48.172;8.058;2023-08-08T09:45:00;3.80;;;1.48;;
13891;SDS011;7016;48.172;8.058;2023-08-08T09:47:27;3.08;;;1.52;;
13891;SDS011;7016;48.172;8.058;2023-08-08T09:49:59;3.45;;;1.58;;
13891;SDS011;7016;48.172;8.058;2023-08-08T09:52:26;5.05;;;1.67;;
13891;SDS011;7016;48.172;8.058;2023-08-08T09:54:53;4.03;;;1.30;;
13891;SDS011;7016;48.172;8.058;2023-08-08T09:57:20;3.30;;;1.35;;
13891;SDS011;7016;48.172;8.058;2023-08-08T09:59:46;2.10;;;1.20;;
13891;SDS011;7016;48.172;8.058;2023-08-08T10:02:14;2.08;;;1.38;;
13891;SDS011;7016;48.172;8.058;2023-08-08T10:04:40;5.93;;;1.50;;
13891;SDS011;7016;48.172;8.058;2023-08-08T10:07:07;3.05;;;1.58;;
13891;SDS011;7016;48.172;8.058;2023-08-08T10:09:33;3.90;;;1.30;;
13891;SDS011;7016;48.172;8.058;2023-08-08T10:11:59;3.05;;;1.60;;
13891;SDS011;7016;48.172;8.058;2023-08-08T10:14:31;4.55;;;1.50;;
13891;SDS011;7016;48.172;8.058;2023-08-08T10:19:27;3.67;;;1.20;;
13891;SDS011;7016;48.172;8.058;2023-08-08T10:21:58;5.10;;;1.60;;
13891;SDS011;7016;48.172;8.058;2023-08-08T10:24:35;4.75;;;1.50;;
13891;SDS011;7016;48.172;8.058;2023-08-08T10:27:01;4.78;;;1.40;;
13891;SDS011;7016;48.172;8.058;2023-08-08T10:29:30;3.92;;;1.30;;
13891;SDS011;7016;48.172;8.058;2023-08-08T10:32:02;4.00;;;1.50;;
13891;SDS011;7016;48.172;8.058;2023-08-08T10:34:42;5.82;;;1.23;;
13891;SDS011;7016;48.172;8.058;2023-08-08T10:37:10;3.20;;;1.40;;
13891;SDS011;7016;48.172;8.058;2023-08-08T10:39:53;2.72;;;1.45;;
13891;SDS011;7016;48.172;8.058;2023-08-08T10:42:23;3.38;;;1.58;;
13891;SDS011;7016;48.172;8.058;2023-08-08T10:47:23;3.38;;;1.13;;
13891;SDS011;7016;48.172;8.058;2023-08-08T10:55:27;6.13;;;1.50;;
13891;SDS011;7016;48.172;8.058;2023-08-08T11:00:36;4.18;;;1.40;;
13891;SDS011;7016;48.172;8.058;2023-08-08T11:03:04;3.28;;;1.33;;
13891;SDS011;7016;48.172;8.058;2023-08-08T11:05:31;2.85;;;1.40;;
13891;SDS011;7016;48.172;8.058;2023-08-08T11:07:58;3.28;;;1.40;;
13891;SDS011;7016;48.172;8.058;2023-08-08T11:10:25;2.55;;;1.20;;
13891;SDS011;7016;48.172;8.058;2023-08-08T11:12:59;3.50;;;1.35;;
13891;SDS011;7016;48.172;8.058;2023-08-08T11:15:28;2.83;;;1.20;;
13891;SDS011;7016;48.172;8.058;2023-08-08T11:17:55;3.25;;;1.60;;
13891;SDS011;7016;48.172;8.058;2023-08-08T11:20:22;2.92;;;1.60;;
13891;SDS011;7016;48.172;8.058;2023-08-08T11:22:55;2.10;;;1.52;;
13891;SDS011;7016;48.172;8.058;2023-08-08T11:25:25;8.15;;;1.70;;
13891;SDS011;7016;48.172;8.058;2023-08-08T11:27:53;4.97;;;1.60;;
13891;SDS011;7016;48.172;8.058;2023-08-08T11:30:19;3.13;;;1.58;;
13891;SDS011;7016;48.172;8.058;2023-08-08T11:32:46;4.57;;;1.40;;
13891;SDS011;7016;48.172;8.058;2023-08-08T11:35:16;3.88;;;1.45;;
13891;SDS011;7016;48.172;8.058;2023-08-08T11:37:44;3.22;;;1.60;;
13891;SDS011;7016;48.172;8.058;2023-08-08T11:40:11;3.20;;;1.50;;
13891;SDS011;7016;48.172;8.058;2023-08-08T11:42:38;3.78;;;1.60;;
13891;SDS011;7016;48.172;8.058;2023-08-08T11:45:06;2.33;;;1.30;;
13891;SDS011;7016;48.172;8.058;2023-08-08T11:47:34;4.57;;;1.52;;
13891;SDS011;7016;48.172;8.058;2023-08-08T11:50:04;5.90;;;1.45;;
13891;SDS011;7016;48.172;8.058;2023-08-08T11:52:31;3.63;;;1.60;;
13891;SDS011;7016;48.172;8.058;2023-08-08T11:54:58;6.70;;;1.67;;
13891;SDS011;7016;48.172;8.058;2023-08-08T11:57:25;2.95;;;1.52;;
13891;SDS011;7016;48.172;8.058;2023-08-08T11:59:55;3.72;;;1.50;;
13891;SDS011;7016;48.172;8.058;2023-08-08T12:02:22;3.83;;;1.83;;
13891;SDS011;7016;48.172;8.058;2023-08-08T12:04:48;4.32;;;1.63;;
13891;SDS011;7016;48.172;8.058;2023-08-08T12:07:14;3.38;;;1.50;;
13891;SDS011;7016;48.172;8.058;2023-08-08T12:09:41;3.67;;;1.50;;
13891;SDS011;7016;48.172;8.058;2023-08-08T12:12:08;3.65;;;1.58;;
13891;SDS011;7016;48.172;8.058;2023-08-08T12:14:42;5.35;;;1.80;;
13891;SDS011;7016;48.172;8.058;2023-08-08T12:17:09;4.32;;;1.52;;
13891;SDS011;7016;48.172;8.058;2023-08-08T12:19:34;5.70;;;1.50;;
13891;SDS011;7016;48.172;8.058;2023-08-08T12:22:00;4.68;;;1.40;;
13891;SDS011;7016;48.172;8.058;2023-08-08T12:24:26;5.32;;;1.60;;
13891;SDS011;7016;48.172;8.058;2023-08-08T12:26:52;3.88;;;1.60;;
13891;SDS011;7016;48.172;8.058;2023-08-08T12:29:17;5.03;;;1.48;;
13891;SDS011;7016;48.172;8.058;2023-08-08T12:31:43;3.70;;;1.50;;
13891;SDS011;7016;48.172;8.058;2023-08-08T12:34:09;2.70;;;1.60;;
13891;SDS011;7016;48.172;8.058;2023-08-08T12:36:35;9.07;;;2.15;;
13891;SDS011;7016;48.172;8.058;2023-08-08T12:39:00;2.55;;;1.70;;
13891;SDS011;7016;48.172;8.058;2023-08-08T12:41:26;3.33;;;1.40;;
13891;SDS011;7016;48.172;8.058;2023-08-08T12:43:54;4.68;;;1.40;;
13891;SDS011;7016;48.172;8.058;2023-08-08T12:46:20;4.25;;;1.73;;
13891;SDS011;7016;48.172;8.058;2023-08-08T12:48:46;4.82;;;1.50;;
13891;SDS011;7016;48.172;8.058;2023-08-08T12:51:12;4.70;;;1.60;;
13891;SDS011;7016;48.172;8.058;2023-08-08T12:53:38;2.53;;;1.50;;
13891;SDS011;7016;48.172;8.058;2023-08-08T12:56:04;3.17;;;1.58;;
13891;SDS011;7016;48.172;8.058;2023-08-08T12:58:29;5.50;;;1.73;;
13891;SDS011;7016;48.172;8.058;2023-08-08T13:00:55;4.55;;;1.70;;
13891;SDS011;7016;48.172;8.058;2023-08-08T13:03:21;2.63;;;1.60;;
13891;SDS011;7016;48.172;8.058;2023-08-08T13:05:46;5.13;;;1.60;;
13891;SDS011;7016;48.172;8.058;2023-08-08T13:08:12;4.07;;;1.75;;
13891;SDS011;7016;48.172;8.058;2023-08-08T13:10:39;6.18;;;1.60;;
13891;SDS011;7016;48.172;8.058;2023-08-08T13:13:05;3.85;;;1.55;;
13891;SDS011;7016;48.172;8.058;2023-08-08T13:15:30;3.95;;;1.50;;
13891;SDS011;7016;48.172;8.058;2023-08-08T13:17:56;3.38;;;1.63;;
13891;SDS011;7016;48.172;8.058;2023-08-08T13:20:22;4.57;;;1.33;;
13891;SDS011;7016;48.172;8.058;2023-08-08T13:22:49;5.55;;;1.65;;
13891;SDS011;7016;48.172;8.058;2023-08-08T13:25:15;5.38;;;1.40;;
13891;SDS011;7016;48.172;8.058;2023-08-08T13:27:43;2.58;;;1.40;;
13891;SDS011;7016;48.172;8.058;2023-08-08T13:30:09;1.80;;;1.40;;
13891;SDS011;7016;48.172;8.058;2023-08-08T13:32:35;2.67;;;1.55;;
13891;SDS011;7016;48.172;8.058;2023-08-08T13:35:02;3.97;;;1.50;;
13891;SDS011;7016;48.172;8.058;2023-08-08T13:37:29;3.50;;;1.70;;
13891;SDS011;7016;48.172;8.058;2023-08-08T13:39:55;6.00;;;1.40;;
13891;SDS011;7016;48.172;8.058;2023-08-08T13:42:22;2.90;;;1.40;;
13891;SDS011;7016;48.172;8.058;2023-08-08T13:44:49;3.80;;;1.48;;
13891;SDS011;7016;48.172;8.058;2023-08-08T13:47:14;4.38;;;1.70;;
13891;SDS011;7016;48.172;8.058;2023-08-08T13:49:40;4.18;;;1.60;;
13891;SDS011;7016;48.172;8.058;2023-08-08T13:52:06;3.22;;;1.38;;
13891;SDS011;7016;48.172;8.058;2023-08-08T13:54:31;4.20;;;1.63;;
13891;SDS011;7016;48.172;8.058;2023-08-08T13:56:57;4.28;;;1.42;;
13891;SDS011;7016;48.172;8.058;2023-08-08T13:59:23;5.15;;;1.50;;
13891;SDS011;7016;48.172;8.058;2023-08-08T14:01:49;2.65;;;1.60;;
13891;SDS011;7016;48.172;8.058;2023-08-08T14:04:15;6.95;;;1.60;;
13891;SDS011;7016;48.172;8.058;2023-08-08T14:06:41;4.85;;;1.40;;
13891;SDS011;7016;48.172;8.058;2023-08-08T14:09:07;2.35;;;1.42;;
13891;SDS011;7016;48.172;8.058;2023-08-08T14:11:32;6.40;;;1.67;;
13891;SDS011;7016;48.172;8.058;2023-08-08T14:13:58;2.78;;;1.48;;
13891;SDS011;7016;48.172;8.058;2023-08-08T14:16:24;3.80;;;1.60;;
13891;SDS011;7016;48.172;8.058;2023-08-08T14:18:49;4.75;;;1.40;;
13891;SDS011;7016;48.172;8.058;2023-08-08T14:21:15;4.85;;;1.40;;
13891;SDS011;7016;48.172;8.058;2023-08-08T14:23:41;3.00;;;1.50;;
13891;SDS011;7016;48.172;8.058;2023-08-08T14:26:06;3.88;;;1.60;;
13891;SDS011;7016;48.172;8.058;2023-08-08T14:28:32;5.32;;;1.75;;
13891;SDS011;7016;48.172;8.058;2023-08-08T14:30:58;3.95;;;1.50;;
13891;SDS011;7016;48.172;8.058;2023-08-08T14:33:23;5.93;;;1.63;;
13891;SDS011;7016;48.172;8.058;2023-08-08T14:35:49;3.60;;;1.58;;
13891;SDS011;7016;48.172;8.058;2023-08-08T14:38:15;4.28;;;1.60;;
13891;SDS011;7016;48.172;8.058;2023-08-08T14:40:41;4.53;;;1.92;;
13891;SDS011;7016;48.172;8.058;2023-08-08T14:43:06;5.43;;;1.50;;
13891;SDS011;7016;48.172;8.058;2023-08-08T14:45:37;2.78;;;1.63;;
13891;SDS011;7016;48.172;8.058;2023-08-08T14:48:04;3.33;;;1.70;;
13891;SDS011;7016;48.172;8.058;2023-08-08T14:50:30;5.32;;;1.77;;
13891;SDS011;7016;48.172;8.058;2023-08-08T14:52:57;3.78;;;1.75;;
13891;SDS011;7016;48.172;8.058;2023-08-08T14:55:22;3.42;;;1.75;;
13891;SDS011;7016;48.172;8.058;2023-08-08T14:57:49;5.15;;;2.03;;
13891;SDS011;7016;48.172;8.058;2023-08-08T15:00:14;3.08;;;1.77;;
13891;SDS011;7016;48.172;8.058;2023-08-08T15:02:40;4.88;;;1.90;;
13891;SDS011;7016;48.172;8.058;2023-08-08T15:05:06;6.72;;;1.92;;
13891;SDS011;7016;48.172;8.058;2023-08-08T15:07:32;5.95;;;1.70;;
13891;SDS011;7016;48.172;8.058;2023-08-08T15:09:57;4.22;;;1.50;;